sensor_id;sensor_type;location;lat;lon;timestamp;temperature;humidity
57264;DHT22;43113;53.124;6.092;2022-09-09T00:07:27;13.70;99.90
57264;DHT22;43113;53.124;6.092;2022-09-09T00:15:31;13.70;99.90
57264;DHT22;43113;53.124;6.092;2022-09-09T00:20:55;13.60;99.90
57264;DHT22;43113;53.124;6.092;2022-09-09T00:23:28;13.60;99.90
57264;DHT22;43113;53.124;6.092;2022-09-09T00:28:29;13.50;99.90
57264;DHT22;43113;53.124;6.092;2022-09-09T00:31:08;13.50;99.90
57264;DHT22;43113;53.124;6.092;2022-09-09T00:33:36;13.50;99.90
57264;DHT22;43113;53.124;6.092;2022-09-09T00:36:12;13.50;99.90
57264;DHT22;43113;53.124;6.092;2022-09-09T00:38:47;13.50;99.90
57264;DHT22;43113;53.124;6.092;2022-09-09T00:41:18;13.50;99.90
57264;DHT22;43113;53.124;6.092;2022-09-09T00:43:52;13.40;99.90
57264;DHT22;43113;53.124;6.092;2022-09-09T00:57:26;13.30;99.90
57264;DHT22;43113;53.124;6.092;2022-09-09T01:05:36;13.30;99.90
57264;DHT22;43113;53.124;6.092;2022-09-09T01:08:08;13.30;99.90
57264;DHT22;43113;53.124;6.092;2022-09-09T01:10:45;13.20;99.90
57264;DHT22;43113;53.124;6.092;2022-09-09T01:13:29;13.20;99.90
57264;DHT22;43113;53.124;6.092;2022-09-09T01:16:01;13.30;99.90
57264;DHT22;43113;53.124;6.092;2022-09-09T01:18:40;13.20;99.90
57264;DHT22;43113;53.124;6.092;2022-09-09T01:28:48;13.40;99.90
57264;DHT22;43113;53.124;6.092;2022-09-09T01:31:31;13.40;99.90
57264;DHT22;43113;53.124;6.092;2022-09-09T01:33:58;13.40;99.90
57264;DHT22;43113;53.124;6.092;2022-09-09T01:36:26;13.40;99.90
57264;DHT22;43113;53.124;6.092;2022-09-09T01:38:53;13.50;99.90
57264;DHT22;43113;53.124;6.092;2022-09-09T01:41:19;13.50;99.90
57264;DHT22;43113;53.124;6.092;2022-09-09T01:43:45;13.90;99.90
57264;DHT22;43113;53.124;6.092;2022-09-09T01:46:12;13.50;99.90
57264;DHT22;43113;53.124;6.092;2022-09-09T01:48:38;13.90;99.90
57264;DHT22;43113;53.124;6.092;2022-09-09T01:51:05;13.60;99.90
57264;DHT22;43113;53.124;6.092;2022-09-09T01:53:31;13.60;99.90
57264;DHT22;43113;53.124;6.092;2022-09-09T01:56:35;13.70;99.90
57264;DHT22;43113;53.124;6.092;2022-09-09T01:59:48;13.70;99.90
57264;DHT22;43113;53.124;6.092;2022-09-09T02:08:00;13.70;99.90
57264;DHT22;43113;53.124;6.092;2022-09-09T02:10:47;13.70;99.90
57264;DHT22;43113;53.124;6.092;2022-09-09T02:13:14;13.70;99.90
57264;DHT22;43113;53.124;6.092;2022-09-09T02:16:08;13.70;99.90
57264;DHT22;43113;53.124;6.092;2022-09-09T02:19:01;13.70;99.90
57264;DHT22;43113;53.124;6.092;2022-09-09T02:21:29;13.70;99.90
57264;DHT22;43113;53.124;6.092;2022-09-09T02:23:58;13.60;99.90
57264;DHT22;43113;53.124;6.092;2022-09-09T02:26:25;13.70;99.90
57264;DHT22;43113;53.124;6.092;2022-09-09T02:28:55;13.60;99.90
57264;DHT22;43113;53.124;6.092;2022-09-09T02:31:22;13.60;99.90
57264;DHT22;43113;53.124;6.092;2022-09-09T02:33:56;13.60;99.90
57264;DHT22;43113;53.124;6.092;2022-09-09T02:36:25;13.60;99.90
57264;DHT22;43113;53.124;6.092;2022-09-09T02:38:52;13.60;99.90
57264;DHT22;43113;53.124;6.092;2022-09-09T02:41:32;13.50;99.90
57264;DHT22;43113;53.124;6.092;2022-09-09T02:43:59;13.50;99.90
57264;DHT22;43113;53.124;6.092;2022-09-09T02:49:15;13.50;99.90
57264;DHT22;43113;53.124;6.092;2022-09-09T02:54:33;13.50;99.90
57264;DHT22;43113;53.124;6.092;2022-09-09T02:57:24;13.60;99.90
57264;DHT22;43113;53.124;6.092;2022-09-09T02:59:51;13.60;99.90
57264;DHT22;43113;53.124;6.092;2022-09-09T03:02:20;13.60;99.90
57264;DHT22;43113;53.124;6.092;2022-09-09T03:04:46;13.60;99.90
57264;DHT22;43113;53.124;6.092;2022-09-09T03:07:16;13.60;99.90
57264;DHT22;43113;53.124;6.092;2022-09-09T03:09:43;13.70;99.90
57264;DHT22;43113;53.124;6.092;2022-09-09T03:12:08;13.60;99.90
57264;DHT22;43113;53.124;6.092;2022-09-09T03:14:37;13.70;99.90
57264;DHT22;43113;53.124;6.092;2022-09-09T03:17:04;13.70;99.90
57264;DHT22;43113;53.124;6.092;2022-09-09T03:19:30;13.70;99.90
57264;DHT22;43113;53.124;6.092;2022-09-09T03:21:57;13.70;99.90
57264;DHT22;43113;53.124;6.092;2022-09-09T03:24:24;13.70;99.90
57264;DHT22;43113;53.124;6.092;2022-09-09T03:26:50;13.70;99.90
57264;DHT22;43113;53.124;6.092;2022-09-09T03:29:16;13.70;99.90
57264;DHT22;43113;53.124;6.092;2022-09-09T03:31:43;13.70;99.90
57264;DHT22;43113;53.124;6.092;2022-09-09T03:34:08;13.70;99.90
57264;DHT22;43113;53.124;6.092;2022-09-09T03:36:34;13.70;99.90
57264;DHT22;43113;53.124;6.092;2022-09-09T03:39:00;13.70;99.90
57264;DHT22;43113;53.124;6.092;2022-09-09T03:41:28;13.80;99.90
57264;DHT22;43113;53.124;6.092;2022-09-09T03:43:54;13.80;99.90
57264;DHT22;43113;53.124;6.092;2022-09-09T03:46:21;13.80;99.90
57264;DHT22;43113;53.124;6.092;2022-09-09T03:48:47;13.80;99.90
57264;DHT22;43113;53.124;6.092;2022-09-09T03:51:13;13.80;99.90
57264;DHT22;43113;53.124;6.092;2022-09-09T03:53:39;13.80;99.90
57264;DHT22;43113;53.124;6.092;2022-09-09T03:56:06;13.80;99.90
57264;DHT22;43113;53.124;6.092;2022-09-09T03:58:37;13.80;99.90
57264;DHT22;43113;53.124;6.092;2022-09-09T04:01:05;13.80;99.90
57264;DHT22;43113;53.124;6.092;2022-09-09T04:03:31;13.90;99.90
57264;DHT22;43113;53.124;6.092;2022-09-09T04:05:59;13.80;99.90
57264;DHT22;43113;53.124;6.092;2022-09-09T04:08:26;13.90;99.90
57264;DHT22;43113;53.124;6.092;2022-09-09T04:10:52;13.90;99.90
57264;DHT22;43113;53.124;6.092;2022-09-09T04:13:19;13.90;99.90
57264;DHT22;43113;53.124;6.092;2022-09-09T04:15:56;13.90;99.90
57264;DHT22;43113;53.124;6.092;2022-09-09T04:18:27;13.90;99.90
57264;DHT22;43113;53.124;6.092;2022-09-09T04:20:56;13.90;99.90
57264;DHT22;43113;53.124;6.092;2022-09-09T04:23:24;13.90;99.90
57264;DHT22;43113;53.124;6.092;2022-09-09T04:25:52;13.90;99.90
57264;DHT22;43113;53.124;6.092;2022-09-09T04:28:20;13.90;99.90
57264;DHT22;43113;53.124;6.092;2022-09-09T04:30:46;13.90;99.90
57264;DHT22;43113;53.124;6.092;2022-09-09T04:33:13;13.80;99.90
57264;DHT22;43113;53.124;6.092;2022-09-09T04:35:39;13.90;99.90
57264;DHT22;43113;53.124;6.092;2022-09-09T04:38:05;13.90;99.90
57264;DHT22;43113;53.124;6.092;2022-09-09T04:40:34;13.90;99.90
57264;DHT22;43113;53.124;6.092;2022-09-09T04:43:01;13.90;99.90
57264;DHT22;43113;53.124;6.092;2022-09-09T04:45:29;13.90;99.90
57264;DHT22;43113;53.124;6.092;2022-09-09T04:47:55;13.90;99.90
57264;DHT22;43113;53.124;6.092;2022-09-09T04:50:21;14.00;99.90
57264;DHT22;43113;53.124;6.092;2022-09-09T04:52:47;14.00;99.90
57264;DHT22;43113;53.124;6.092;2022-09-09T04:55:12;14.00;99.90
57264;DHT22;43113;53.124;6.092;2022-09-09T04:57:39;14.10;99.90
57264;DHT22;43113;53.124;6.092;2022-09-09T05:00:05;14.10;99.90
57264;DHT22;43113;53.124;6.092;2022-09-09T05:02:37;14.10;99.90
57264;DHT22;43113;53.124;6.092;2022-09-09T05:05:04;14.10;99.90
57264;DHT22;43113;53.124;6.092;2022-09-09T05:07:30;14.10;99.90
57264;DHT22;43113;53.124;6.092;2022-09-09T05:09:57;14.20;99.90
57264;DHT22;43113;53.124;6.092;2022-09-09T05:12:23;14.20;99.90
57264;DHT22;43113;53.124;6.092;2022-09-09T05:14:51;14.20;99.90
57264;DHT22;43113;53.124;6.092;2022-09-09T05:17:17;14.20;99.90
57264;DHT22;43113;53.124;6.092;2022-09-09T05:19:43;14.20;99.90
57264;DHT22;43113;53.124;6.092;2022-09-09T05:22:10;14.20;99.90
57264;DHT22;43113;53.124;6.092;2022-09-09T05:24:37;14.20;99.90
57264;DHT22;43113;53.124;6.092;2022-09-09T05:27:04;14.20;99.90
57264;DHT22;43113;53.124;6.092;2022-09-09T05:29:30;14.20;99.90
57264;DHT22;43113;53.124;6.092;2022-09-09T05:31:59;14.20;99.90
57264;DHT22;43113;53.124;6.092;2022-09-09T05:34:24;14.20;99.90
57264;DHT22;43113;53.124;6.092;2022-09-09T05:36:50;14.20;99.90
57264;DHT22;43113;53.124;6.092;2022-09-09T05:39:17;14.20;99.90
57264;DHT22;43113;53.124;6.092;2022-09-09T05:41:43;14.20;99.90
57264;DHT22;43113;53.124;6.092;2022-09-09T05:44:09;14.30;99.90
57264;DHT22;43113;53.124;6.092;2022-09-09T05:46:35;14.30;99.90
57264;DHT22;43113;53.124;6.092;2022-09-09T05:49:02;14.40;99.90
57264;DHT22;43113;53.124;6.092;2022-09-09T05:51:29;14.40;99.90
57264;DHT22;43113;53.124;6.092;2022-09-09T05:53:55;14.40;99.90
57264;DHT22;43113;53.124;6.092;2022-09-09T05:56:26;14.40;99.90
57264;DHT22;43113;53.124;6.092;2022-09-09T05:58:53;14.60;99.90
57264;DHT22;43113;53.124;6.092;2022-09-09T06:01:41;14.50;99.90
57264;DHT22;43113;53.124;6.092;2022-09-09T06:04:07;14.50;99.90
57264;DHT22;43113;53.124;6.092;2022-09-09T06:06:36;14.50;99.90
57264;DHT22;43113;53.124;6.092;2022-09-09T06:09:06;14.60;99.90
57264;DHT22;43113;53.124;6.092;2022-09-09T06:11:36;14.70;99.90
57264;DHT22;43113;53.124;6.092;2022-09-09T06:14:03;14.70;99.90
57264;DHT22;43113;53.124;6.092;2022-09-09T06:16:29;14.80;99.90
57264;DHT22;43113;53.124;6.092;2022-09-09T06:18:56;15.00;99.90
57264;DHT22;43113;53.124;6.092;2022-09-09T06:21:25;15.10;99.90
57264;DHT22;43113;53.124;6.092;2022-09-09T06:23:53;15.20;99.90
57264;DHT22;43113;53.124;6.092;2022-09-09T06:26:37;15.30;99.90
57264;DHT22;43113;53.124;6.092;2022-09-09T06:29:03;15.30;99.90
57264;DHT22;43113;53.124;6.092;2022-09-09T06:31:31;15.20;99.90
57264;DHT22;43113;53.124;6.092;2022-09-09T06:33:58;15.20;99.90
57264;DHT22;43113;53.124;6.092;2022-09-09T06:36:26;15.20;99.90
57264;DHT22;43113;53.124;6.092;2022-09-09T06:38:52;15.10;99.90
57264;DHT22;43113;53.124;6.092;2022-09-09T06:41:19;15.10;99.90
57264;DHT22;43113;53.124;6.092;2022-09-09T06:43:46;15.00;99.90
57264;DHT22;43113;53.124;6.092;2022-09-09T06:48:40;15.00;99.90
57264;DHT22;43113;53.124;6.092;2022-09-09T06:53:40;15.10;99.90
57264;DHT22;43113;53.124;6.092;2022-09-09T06:58:39;15.10;99.90
57264;DHT22;43113;53.124;6.092;2022-09-09T07:01:09;15.10;99.90
57264;DHT22;43113;53.124;6.092;2022-09-09T07:03:35;15.20;99.90
57264;DHT22;43113;53.124;6.092;2022-09-09T07:06:01;15.30;99.90
57264;DHT22;43113;53.124;6.092;2022-09-09T07:08:27;15.30;99.90
57264;DHT22;43113;53.124;6.092;2022-09-09T07:10:53;15.40;99.90
57264;DHT22;43113;53.124;6.092;2022-09-09T07:13:28;15.50;99.90
57264;DHT22;43113;53.124;6.092;2022-09-09T07:15:54;15.60;99.90
57264;DHT22;43113;53.124;6.092;2022-09-09T07:18:20;15.70;99.90
57264;DHT22;43113;53.124;6.092;2022-09-09T07:20:55;15.80;99.90
57264;DHT22;43113;53.124;6.092;2022-09-09T07:23:23;16.00;99.90
57264;DHT22;43113;53.124;6.092;2022-09-09T07:25:49;16.20;99.90
57264;DHT22;43113;53.124;6.092;2022-09-09T07:28:15;16.60;99.90
57264;DHT22;43113;53.124;6.092;2022-09-09T07:30:41;17.00;99.90
57264;DHT22;43113;53.124;6.092;2022-09-09T07:33:08;17.30;99.90
57264;DHT22;43113;53.124;6.092;2022-09-09T07:35:38;17.50;99.90
57264;DHT22;43113;53.124;6.092;2022-09-09T07:38:04;17.80;99.90
57264;DHT22;43113;53.124;6.092;2022-09-09T07:40:35;18.10;99.90
57264;DHT22;43113;53.124;6.092;2022-09-09T07:43:01;19.00;99.90
57264;DHT22;43113;53.124;6.092;2022-09-09T07:45:27;20.50;99.90
57264;DHT22;43113;53.124;6.092;2022-09-09T07:47:58;22.20;99.90
57264;DHT22;43113;53.124;6.092;2022-09-09T07:50:24;24.00;99.90
57264;DHT22;43113;53.124;6.092;2022-09-09T07:52:53;25.10;99.90
57264;DHT22;43113;53.124;6.092;2022-09-09T07:55:20;25.40;99.90
57264;DHT22;43113;53.124;6.092;2022-09-09T07:57:46;25.40;99.90
57264;DHT22;43113;53.124;6.092;2022-09-09T08:00:13;25.00;99.90
57264;DHT22;43113;53.124;6.092;2022-09-09T08:02:40;24.10;99.10
57264;DHT22;43113;53.124;6.092;2022-09-09T08:05:06;23.50;99.90
57264;DHT22;43113;53.124;6.092;2022-09-09T08:07:32;23.80;99.90
57264;DHT22;43113;53.124;6.092;2022-09-09T08:09:58;23.90;99.90
57264;DHT22;43113;53.124;6.092;2022-09-09T08:12:24;25.00;99.90
57264;DHT22;43113;53.124;6.092;2022-09-09T08:14:49;25.40;98.50
57264;DHT22;43113;53.124;6.092;2022-09-09T08:17:16;26.10;99.00
57264;DHT22;43113;53.124;6.092;2022-09-09T08:19:45;25.70;96.70
57264;DHT22;43113;53.124;6.092;2022-09-09T08:22:11;25.70;97.10
57264;DHT22;43113;53.124;6.092;2022-09-09T08:24:36;26.50;98.40
57264;DHT22;43113;53.124;6.092;2022-09-09T08:27:02;27.40;96.00
57264;DHT22;43113;53.124;6.092;2022-09-09T08:29:34;27.60;94.70
57264;DHT22;43113;53.124;6.092;2022-09-09T08:32:00;26.60;94.70
57264;DHT22;43113;53.124;6.092;2022-09-09T08:34:30;25.80;95.50
57264;DHT22;43113;53.124;6.092;2022-09-09T08:36:58;24.80;95.80
57264;DHT22;43113;53.124;6.092;2022-09-09T08:39:27;24.60;98.90
57264;DHT22;43113;53.124;6.092;2022-09-09T08:42:17;24.70;98.10
57264;DHT22;43113;53.124;6.092;2022-09-09T08:45:18;25.30;98.80
57264;DHT22;43113;53.124;6.092;2022-09-09T08:47:57;24.80;97.40
57264;DHT22;43113;53.124;6.092;2022-09-09T08:50:29;24.00;98.30
57264;DHT22;43113;53.124;6.092;2022-09-09T08:53:16;24.10;99.40
57264;DHT22;43113;53.124;6.092;2022-09-09T08:55:57;24.10;99.20
57264;DHT22;43113;53.124;6.092;2022-09-09T08:58:33;24.00;99.90
57264;DHT22;43113;53.124;6.092;2022-09-09T09:12:26;23.40;99.90
57264;DHT22;43113;53.124;6.092;2022-09-09T09:14:54;24.50;99.90
57264;DHT22;43113;53.124;6.092;2022-09-09T09:17:27;25.80;99.10
57264;DHT22;43113;53.124;6.092;2022-09-09T09:19:53;26.90;99.40
57264;DHT22;43113;53.124;6.092;2022-09-09T09:27:36;27.50;93.20
57264;DHT22;43113;53.124;6.092;2022-09-09T09:30:16;26.50;93.80
57264;DHT22;43113;53.124;6.092;2022-09-09T09:33:00;24.80;95.60
57264;DHT22;43113;53.124;6.092;2022-09-09T09:35:28;24.40;97.20
57264;DHT22;43113;53.124;6.092;2022-09-09T09:37:54;23.90;99.30
57264;DHT22;43113;53.124;6.092;2022-09-09T09:40:23;23.40;99.20
57264;DHT22;43113;53.124;6.092;2022-09-09T09:43:00;22.80;99.90
57264;DHT22;43113;53.124;6.092;2022-09-09T09:45:43;22.10;99.90
57264;DHT22;43113;53.124;6.092;2022-09-09T09:48:13;21.90;99.90
57264;DHT22;43113;53.124;6.092;2022-09-09T09:50:49;21.40;99.90
57264;DHT22;43113;53.124;6.092;2022-09-09T09:55:52;20.70;99.90
57264;DHT22;43113;53.124;6.092;2022-09-09T09:58:19;20.70;99.90
57264;DHT22;43113;53.124;6.092;2022-09-09T10:00:49;20.70;99.90
57264;DHT22;43113;53.124;6.092;2022-09-09T10:03:33;20.80;99.90
57264;DHT22;43113;53.124;6.092;2022-09-09T10:06:04;21.20;99.90
57264;DHT22;43113;53.124;6.092;2022-09-09T10:08:34;21.40;99.90
57264;DHT22;43113;53.124;6.092;2022-09-09T10:19:35;21.50;99.90
57264;DHT22;43113;53.124;6.092;2022-09-09T10:22:26;21.40;99.90
57264;DHT22;43113;53.124;6.092;2022-09-09T10:25:07;21.40;99.90
57264;DHT22;43113;53.124;6.092;2022-09-09T10:27:48;21.20;99.90
57264;DHT22;43113;53.124;6.092;2022-09-09T10:30:18;20.80;99.90
57264;DHT22;43113;53.124;6.092;2022-09-09T10:38:38;20.90;99.90
57264;DHT22;43113;53.124;6.092;2022-09-09T10:41:11;21.70;99.90
57264;DHT22;43113;53.124;6.092;2022-09-09T10:44:14;23.80;99.90
57264;DHT22;43113;53.124;6.092;2022-09-09T10:49:47;24.40;99.10
57264;DHT22;43113;53.124;6.092;2022-09-09T10:52:38;23.90;98.80
57264;DHT22;43113;53.124;6.092;2022-09-09T10:55:18;23.40;98.30
57264;DHT22;43113;53.124;6.092;2022-09-09T10:57:53;23.20;99.60
57264;DHT22;43113;53.124;6.092;2022-09-09T11:00:38;22.70;99.90
57264;DHT22;43113;53.124;6.092;2022-09-09T11:03:05;22.70;99.90
57264;DHT22;43113;53.124;6.092;2022-09-09T11:05:45;23.00;99.90
57264;DHT22;43113;53.124;6.092;2022-09-09T11:08:18;23.40;99.50
57264;DHT22;43113;53.124;6.092;2022-09-09T11:11:01;23.50;99.90
57264;DHT22;43113;53.124;6.092;2022-09-09T11:13:48;23.10;99.50
57264;DHT22;43113;53.124;6.092;2022-09-09T11:19:03;24.10;98.10
57264;DHT22;43113;53.124;6.092;2022-09-09T11:21:47;25.00;97.00
57264;DHT22;43113;53.124;6.092;2022-09-09T11:26:47;24.60;97.10
57264;DHT22;43113;53.124;6.092;2022-09-09T11:32:03;24.20;96.90
57264;DHT22;43113;53.124;6.092;2022-09-09T11:34:52;23.90;97.70
57264;DHT22;43113;53.124;6.092;2022-09-09T11:37:42;23.40;98.70
57264;DHT22;43113;53.124;6.092;2022-09-09T11:40:25;23.00;98.30
57264;DHT22;43113;53.124;6.092;2022-09-09T11:43:15;22.80;99.60
57264;DHT22;43113;53.124;6.092;2022-09-09T11:45:51;22.20;99.90
57264;DHT22;43113;53.124;6.092;2022-09-09T11:53:33;21.00;99.90
57264;DHT22;43113;53.124;6.092;2022-09-09T11:56:11;20.70;99.90
57264;DHT22;43113;53.124;6.092;2022-09-09T11:58:44;20.60;99.90
57264;DHT22;43113;53.124;6.092;2022-09-09T12:01:43;20.60;99.90
57264;DHT22;43113;53.124;6.092;2022-09-09T12:10:05;21.50;99.90
57264;DHT22;43113;53.124;6.092;2022-09-09T12:12:44;22.20;99.90
57264;DHT22;43113;53.124;6.092;2022-09-09T12:17:52;22.80;99.90
57264;DHT22;43113;53.124;6.092;2022-09-09T12:23:25;22.70;99.90
57264;DHT22;43113;53.124;6.092;2022-09-09T12:26:07;22.50;99.90
57264;DHT22;43113;53.124;6.092;2022-09-09T12:28:40;22.30;99.90
57264;DHT22;43113;53.124;6.092;2022-09-09T12:36:40;22.30;99.90
57264;DHT22;43113;53.124;6.092;2022-09-09T12:39:22;22.20;99.90
57264;DHT22;43113;53.124;6.092;2022-09-09T12:41:51;22.20;99.90
57264;DHT22;43113;53.124;6.092;2022-09-09T12:44:23;22.10;99.90
57264;DHT22;43113;53.124;6.092;2022-09-09T12:46:49;22.10;99.90
57264;DHT22;43113;53.124;6.092;2022-09-09T12:52:46;22.50;99.90
57264;DHT22;43113;53.124;6.092;2022-09-09T12:54:47;22.30;99.90
57264;DHT22;43113;53.124;6.092;2022-09-09T12:57:14;22.30;99.90
57264;DHT22;43113;53.124;6.092;2022-09-09T12:59:42;22.30;99.90
57264;DHT22;43113;53.124;6.092;2022-09-09T13:02:25;22.40;99.90
57264;DHT22;43113;53.124;6.092;2022-09-09T13:04:52;22.50;99.90
57264;DHT22;43113;53.124;6.092;2022-09-09T13:07:20;22.60;99.90
57264;DHT22;43113;53.124;6.092;2022-09-09T13:09:50;22.70;99.90
57264;DHT22;43113;53.124;6.092;2022-09-09T13:12:19;22.40;99.90
57264;DHT22;43113;53.124;6.092;2022-09-09T13:14:55;22.10;99.90
57264;DHT22;43113;53.124;6.092;2022-09-09T13:17:27;21.80;99.90
57264;DHT22;43113;53.124;6.092;2022-09-09T13:19:57;21.50;99.90
57264;DHT22;43113;53.124;6.092;2022-09-09T13:27:55;20.60;99.90
57264;DHT22;43113;53.124;6.092;2022-09-09T13:35:35;21.40;99.90
57264;DHT22;43113;53.124;6.092;2022-09-09T13:38:16;21.50;99.90
57264;DHT22;43113;53.124;6.092;2022-09-09T13:40:56;21.40;99.90
57264;DHT22;43113;53.124;6.092;2022-09-09T13:43:24;21.10;99.90
57264;DHT22;43113;53.124;6.092;2022-09-09T13:45:59;20.70;99.90
57264;DHT22;43113;53.124;6.092;2022-09-09T13:48:25;20.50;99.90
57264;DHT22;43113;53.124;6.092;2022-09-09T13:51:00;20.50;99.90
57264;DHT22;43113;53.124;6.092;2022-09-09T13:53:26;20.60;99.90
57264;DHT22;43113;53.124;6.092;2022-09-09T13:55:53;21.00;99.90
57264;DHT22;43113;53.124;6.092;2022-09-09T13:58:19;21.30;99.90
57264;DHT22;43113;53.124;6.092;2022-09-09T14:00:45;21.70;99.90
57264;DHT22;43113;53.124;6.092;2022-09-09T14:03:11;21.80;99.90
57264;DHT22;43113;53.124;6.092;2022-09-09T14:05:37;21.80;99.90
57264;DHT22;43113;53.124;6.092;2022-09-09T14:08:07;21.90;99.90
57264;DHT22;43113;53.124;6.092;2022-09-09T14:10:36;22.10;99.90
57264;DHT22;43113;53.124;6.092;2022-09-09T14:13:03;22.20;99.90
57264;DHT22;43113;53.124;6.092;2022-09-09T14:15:28;22.10;99.90
57264;DHT22;43113;53.124;6.092;2022-09-09T14:17:54;22.10;99.90
57264;DHT22;43113;53.124;6.092;2022-09-09T14:20:20;21.70;99.90
57264;DHT22;43113;53.124;6.092;2022-09-09T14:22:46;21.50;99.90
57264;DHT22;43113;53.124;6.092;2022-09-09T14:25:12;21.50;99.90
57264;DHT22;43113;53.124;6.092;2022-09-09T14:27:41;21.40;99.90
57264;DHT22;43113;53.124;6.092;2022-09-09T14:30:08;21.40;99.90
57264;DHT22;43113;53.124;6.092;2022-09-09T14:32:35;21.40;99.90
57264;DHT22;43113;53.124;6.092;2022-09-09T14:35:00;21.40;99.90
57264;DHT22;43113;53.124;6.092;2022-09-09T14:37:27;21.40;99.90
57264;DHT22;43113;53.124;6.092;2022-09-09T14:39:53;21.80;99.90
57264;DHT22;43113;53.124;6.092;2022-09-09T14:42:19;21.90;99.90
57264;DHT22;43113;53.124;6.092;2022-09-09T14:44:47;22.00;99.90
57264;DHT22;43113;53.124;6.092;2022-09-09T14:47:13;22.00;99.90
57264;DHT22;43113;53.124;6.092;2022-09-09T14:49:39;21.70;99.90
57264;DHT22;43113;53.124;6.092;2022-09-09T14:52:05;21.70;99.90
57264;DHT22;43113;53.124;6.092;2022-09-09T14:54:40;21.40;99.90
57264;DHT22;43113;53.124;6.092;2022-09-09T14:57:06;21.10;99.90
57264;DHT22;43113;53.124;6.092;2022-09-09T14:59:32;20.60;99.90
57264;DHT22;43113;53.124;6.092;2022-09-09T15:01:57;20.60;99.90
57264;DHT22;43113;53.124;6.092;2022-09-09T15:04:26;20.50;99.90
57264;DHT22;43113;53.124;6.092;2022-09-09T15:06:53;20.60;99.90
57264;DHT22;43113;53.124;6.092;2022-09-09T15:09:19;20.70;99.90
57264;DHT22;43113;53.124;6.092;2022-09-09T15:11:45;20.70;99.90
57264;DHT22;43113;53.124;6.092;2022-09-09T15:14:11;20.60;99.90
57264;DHT22;43113;53.124;6.092;2022-09-09T15:16:38;20.40;99.90
57264;DHT22;43113;53.124;6.092;2022-09-09T15:19:04;20.20;99.90
57264;DHT22;43113;53.124;6.092;2022-09-09T15:21:32;19.90;99.90
57264;DHT22;43113;53.124;6.092;2022-09-09T15:23:59;19.60;99.90
57264;DHT22;43113;53.124;6.092;2022-09-09T15:26:25;19.20;99.90
57264;DHT22;43113;53.124;6.092;2022-09-09T15:28:52;18.40;99.90
57264;DHT22;43113;53.124;6.092;2022-09-09T15:31:30;18.40;99.90
57264;DHT22;43113;53.124;6.092;2022-09-09T15:33:58;18.00;99.90
57264;DHT22;43113;53.124;6.092;2022-09-09T15:38:54;17.60;99.90
57264;DHT22;43113;53.124;6.092;2022-09-09T15:41:21;17.40;99.90
57264;DHT22;43113;53.124;6.092;2022-09-09T15:43:52;17.30;99.90
57264;DHT22;43113;53.124;6.092;2022-09-09T15:46:38;17.20;99.90
57264;DHT22;43113;53.124;6.092;2022-09-09T15:51:34;17.10;99.90
57264;DHT22;43113;53.124;6.092;2022-09-09T15:54:00;17.10;99.90
57264;DHT22;43113;53.124;6.092;2022-09-09T15:56:27;17.20;99.90
57264;DHT22;43113;53.124;6.092;2022-09-09T15:58:56;17.20;99.90
57264;DHT22;43113;53.124;6.092;2022-09-09T16:01:23;17.30;99.90
57264;DHT22;43113;53.124;6.092;2022-09-09T16:03:48;17.40;99.90
57264;DHT22;43113;53.124;6.092;2022-09-09T16:06:21;17.40;99.90
57264;DHT22;43113;53.124;6.092;2022-09-09T16:08:49;17.50;99.90
57264;DHT22;43113;53.124;6.092;2022-09-09T16:11:24;17.60;99.90
57264;DHT22;43113;53.124;6.092;2022-09-09T16:13:51;17.60;99.90
57264;DHT22;43113;53.124;6.092;2022-09-09T16:16:20;17.60;99.90
57264;DHT22;43113;53.124;6.092;2022-09-09T16:18:52;17.60;99.90
57264;DHT22;43113;53.124;6.092;2022-09-09T16:21:24;17.60;99.90
57264;DHT22;43113;53.124;6.092;2022-09-09T16:23:53;17.60;99.90
57264;DHT22;43113;53.124;6.092;2022-09-09T16:26:19;17.60;99.90
57264;DHT22;43113;53.124;6.092;2022-09-09T16:28:45;17.60;99.90
57264;DHT22;43113;53.124;6.092;2022-09-09T16:31:19;17.60;99.90
57264;DHT22;43113;53.124;6.092;2022-09-09T16:33:46;17.60;99.90
57264;DHT22;43113;53.124;6.092;2022-09-09T16:36:17;17.60;99.90
57264;DHT22;43113;53.124;6.092;2022-09-09T16:38:43;17.60;99.90
57264;DHT22;43113;53.124;6.092;2022-09-09T16:41:10;17.60;99.90
57264;DHT22;43113;53.124;6.092;2022-09-09T16:43:37;17.60;99.90
57264;DHT22;43113;53.124;6.092;2022-09-09T16:46:03;17.60;99.90
57264;DHT22;43113;53.124;6.092;2022-09-09T16:48:36;17.60;99.90
57264;DHT22;43113;53.124;6.092;2022-09-09T16:51:08;17.60;99.90
57264;DHT22;43113;53.124;6.092;2022-09-09T16:53:36;17.60;99.90
57264;DHT22;43113;53.124;6.092;2022-09-09T16:56:06;17.60;99.90
57264;DHT22;43113;53.124;6.092;2022-09-09T16:58:32;17.60;99.90
57264;DHT22;43113;53.124;6.092;2022-09-09T17:01:02;17.50;99.90
57264;DHT22;43113;53.124;6.092;2022-09-09T17:03:29;17.60;99.90
57264;DHT22;43113;53.124;6.092;2022-09-09T17:05:55;17.50;99.90
57264;DHT22;43113;53.124;6.092;2022-09-09T17:08:20;17.50;99.90
57264;DHT22;43113;53.124;6.092;2022-09-09T17:10:46;17.50;99.90
57264;DHT22;43113;53.124;6.092;2022-09-09T17:13:13;17.40;99.90
57264;DHT22;43113;53.124;6.092;2022-09-09T17:15:40;17.40;99.90
57264;DHT22;43113;53.124;6.092;2022-09-09T17:18:12;17.40;99.90
57264;DHT22;43113;53.124;6.092;2022-09-09T17:20:39;17.40;99.90
57264;DHT22;43113;53.124;6.092;2022-09-09T17:23:06;17.40;99.90
57264;DHT22;43113;53.124;6.092;2022-09-09T17:25:32;17.40;99.90
57264;DHT22;43113;53.124;6.092;2022-09-09T17:27:58;17.40;99.90
57264;DHT22;43113;53.124;6.092;2022-09-09T17:30:26;17.30;99.90
57264;DHT22;43113;53.124;6.092;2022-09-09T17:32:53;17.30;99.90
57264;DHT22;43113;53.124;6.092;2022-09-09T17:35:18;17.30;99.90
57264;DHT22;43113;53.124;6.092;2022-09-09T17:37:45;17.20;99.90
57264;DHT22;43113;53.124;6.092;2022-09-09T17:40:11;17.20;99.90
57264;DHT22;43113;53.124;6.092;2022-09-09T17:42:36;17.20;99.90
57264;DHT22;43113;53.124;6.092;2022-09-09T17:45:03;17.20;99.90
57264;DHT22;43113;53.124;6.092;2022-09-09T17:47:32;17.20;99.90
57264;DHT22;43113;53.124;6.092;2022-09-09T17:49:58;17.20;99.90
57264;DHT22;43113;53.124;6.092;2022-09-09T17:52:24;17.20;99.90
57264;DHT22;43113;53.124;6.092;2022-09-09T17:54:49;17.20;99.90
57264;DHT22;43113;53.124;6.092;2022-09-09T17:57:16;17.20;99.90
57264;DHT22;43113;53.124;6.092;2022-09-09T17:59:47;17.10;99.90
57264;DHT22;43113;53.124;6.092;2022-09-09T18:02:13;17.10;99.90
57264;DHT22;43113;53.124;6.092;2022-09-09T18:04:39;17.10;99.90
57264;DHT22;43113;53.124;6.092;2022-09-09T18:07:07;17.10;99.90
57264;DHT22;43113;53.124;6.092;2022-09-09T18:09:33;17.00;99.90
57264;DHT22;43113;53.124;6.092;2022-09-09T18:11:59;17.00;99.90
57264;DHT22;43113;53.124;6.092;2022-09-09T18:14:29;17.00;99.90